Airport View

Enter AWOS ICAO identifier for current METAR.

ex. KFNL

KPLU 210055Z AUTO 00000KT 10SM FEW038 19/14 A3012 RMK AO2

21 Sep 2019 01:12

Frequency: 128.575

Phone: 253-848-2748

Other Area AWOS: KTCM - KGRF - KTIW - KSEA

TAF KTCM 202100Z 2021/2203 22006KT 9999 SCT025 BKN050 QNH3010INS BECMG 2107/2108 VRB06KT 9999 OVC015 QNH3015INS BECMG 2110/2111 VRB06KT 9999 BKN009 OVC015 QNH3016INS BECMG 2116/2117 21006KT 9999 BKN015 OVC035 QNH3018INS BECMG 2119/2120 21006KT 9999 SCT035 QNH3015INS TX20/2023Z TN13/2113Z